WAMM Airport Information

Runway Information
Runway 18 Length 8693 ft width 148 ft Elevation 270 ft Threshold N/A Heading 182
Runway 36 Length 8693 ft Width 148 ft Elevation 264 ft Threshold N/A Heading 2
Airport Frequencies
Type APP Name MANADO APP Frequency 119 MHZ
Type ATIS Name ATIS Frequency 126.4 MHZ
Type INFO Name MANADO INF Frequency 891.8 MHZ
Type TWR Name RATULANGI Frequency 118.1 MHZ
Airport Navaids
Type NDB Name Manado Frequency 255 KHZ
Type VOR-DME Name Manado Frequency 114200 KHZ
Type VOR-DME Name Manado Frequency 114800 KHZ
Type NDB Name Manado Frequency 290 KHZ
Airport Weather Information & NOTAM
ADDS - METARS form results

(0642 UTC 09 December 2022)
Data provider http://aviationweather.gov/metar/data/
 
METAR text: WAMM 090630Z 32003KT 250V030 9000 SCT019 31/25 Q1005 NOSIG METAR
Conditions at: WAMM (MENADO/SAM RATUL, ID) observed 0630 UTC 09 December 2022
Temperature: 31.0°C (88°F)
Dewpoint: 25.0°C (77°F) [RH = 71%]
Pressure (altimeter): 29.68 inches Hg (1005.0 mb)
Winds: from the NW (320 degrees) at 3 MPH (3 knots; 1.5 m/s)
Visibility: 6 miles ( 9 km)
Ceiling: at least 12,000 feet AGL
Clouds: scattered clouds at 1900 feet AGL
Weather: no significant weather observed at this time

METAR text: WAMM 090600Z 29004KT 200V010 9999 SCT019 30/25 Q1005 NOSIG
Conditions at: WAMM (MENADO/SAM RATUL, ID) observed 0600 UTC 09 December 2022
Temperature: 30.0°C (86°F)
Dewpoint: 25.0°C (77°F) [RH = 75%]
Pressure (altimeter): 29.68 inches Hg (1005.0 mb)
Winds: from the WNW (290 degrees) at 5 MPH (4 knots; 2.1 m/s)
Visibility: 6 or more miles (10+ km)
Ceiling: at least 12,000 feet AGL
Clouds: scattered clouds at 1900 feet AGL
Weather: no significant weather observed at this time

Forecast for: WAMM (MENADO/SAM RATUL, ID)
Text: TAF WAMM 090500Z 0906/1012 32009KT 9999 FEW020
Forecast period: 0600 to 1100 UTC 09 December 2022
Forecast type: FROM: standard forecast or significant change
Winds: from the NW (320 degrees) at 10 MPH (9 knots; 4.6 m/s)
Visibility: 6 or more miles (10+ km)
Ceiling: at least 12,000 feet AGL
Clouds: few clouds at 2000 feet AGL
Weather: no significant weather forecast for this period
Text: BECMG 0911/0912 VRB03KT
Forecast period: 1100 UTC 09 December 2022 to 1200 UTC 10 December 2022
Forecast type: BECOMING: Conditions expected to become as follows by 1200 UTC 09 December 2022
Winds: variable direction winds at 3 MPH (3 knots; 1.5 m/s)
Visibility: 6 or more miles (10+ km)
Ceiling: at least 12,000 feet AGL
Clouds: few clouds at 2000 feet AGL
Weather: no significant weather forecast for this period